createdAt,value
2023-03-13T00:01:36.414Z,63.40
2023-03-13T00:04:04.521Z,63.40
2023-03-13T00:06:33.955Z,63.30
2023-03-13T00:09:01.817Z,63.30
2023-03-13T00:11:29.848Z,63.20
2023-03-13T00:13:57.875Z,63.30
2023-03-13T00:16:26.008Z,63.30
2023-03-13T00:18:55.811Z,63.20
2023-03-13T00:21:24.594Z,63.20
2023-03-13T00:23:52.609Z,63.30
2023-03-13T00:26:21.313Z,63.20
2023-03-13T00:28:50.832Z,63.20
2023-03-13T00:31:20.431Z,63.30
2023-03-13T00:33:52.865Z,63.20
2023-03-13T00:36:22.889Z,63.20
2023-03-13T00:38:50.812Z,63.20
2023-03-13T00:41:19.835Z,63.10
2023-03-13T00:43:48.755Z,63.30
2023-03-13T00:46:17.894Z,63.40
2023-03-13T00:48:45.918Z,63.30
2023-03-13T00:51:14.244Z,63.20
2023-03-13T00:53:43.894Z,63.20
2023-03-13T00:56:12.633Z,63.10
2023-03-13T00:58:42.037Z,63.20
2023-03-13T01:01:10.582Z,63.10
2023-03-13T01:03:38.846Z,63.10
2023-03-13T01:06:07.887Z,63.10
2023-03-13T01:08:35.920Z,63.10
2023-03-13T01:11:06.743Z,63.10
2023-03-13T01:13:34.937Z,63.10
2023-03-13T01:16:06.552Z,63.10
2023-03-13T01:18:34.757Z,63.10
2023-03-13T01:21:02.678Z,63.00
2023-03-13T01:23:30.702Z,63.00
2023-03-13T01:25:58.707Z,63.00
2023-03-13T01:28:28.005Z,63.00
2023-03-13T01:30:55.933Z,63.00
2023-03-13T01:33:23.878Z,63.00
2023-03-13T01:35:51.857Z,63.00
2023-03-13T01:38:20.121Z,62.90
2023-03-13T01:40:48.687Z,63.00
2023-03-13T01:43:27.059Z,62.90
2023-03-13T01:45:59.397Z,63.10
2023-03-13T01:48:35.579Z,63.10
2023-03-13T01:51:05.709Z,63.00
2023-03-13T01:53:34.516Z,63.00
2023-03-13T01:56:02.696Z,63.00
2023-03-13T01:58:30.667Z,63.00
2023-03-13T02:01:00.557Z,62.90
2023-03-13T02:03:28.509Z,63.00
2023-03-13T02:05:56.426Z,62.90
2023-03-13T02:08:25.244Z,62.90
2023-03-13T02:10:54.719Z,62.90
2023-03-13T02:13:22.840Z,63.00
2023-03-13T02:15:50.775Z,63.00
2023-03-13T02:18:20.053Z,63.10
2023-03-13T02:20:48.146Z,62.90
2023-03-13T02:23:20.440Z,63.00
2023-03-13T02:25:50.100Z,63.10
2023-03-13T02:28:24.292Z,63.00
2023-03-13T02:30:53.180Z,62.90
2023-03-13T02:33:21.078Z,63.60
2023-03-13T02:35:57.553Z,62.80
2023-03-13T02:38:26.408Z,62.80
2023-03-13T02:40:54.350Z,62.70
2023-03-13T02:43:24.210Z,62.70
2023-03-13T02:46:02.902Z,62.70
2023-03-13T02:48:34.466Z,62.70
2023-03-13T02:51:04.634Z,62.70
2023-03-13T02:53:32.923Z,62.70
2023-03-13T02:56:00.871Z,62.70
2023-03-13T02:58:31.730Z,62.60
2023-03-13T03:01:07.622Z,62.60
2023-03-13T03:03:38.425Z,62.60
2023-03-13T03:06:08.284Z,62.60
2023-03-13T03:08:36.680Z,62.50
2023-03-13T03:11:06.585Z,62.40
2023-03-13T03:13:34.810Z,62.30
2023-03-13T03:16:07.478Z,62.30
2023-03-13T03:18:35.658Z,62.30
2023-03-13T03:21:06.359Z,62.40
2023-03-13T03:23:39.864Z,62.40
2023-03-13T03:26:08.391Z,62.30
2023-03-13T03:28:36.425Z,62.30
2023-03-13T03:31:10.099Z,62.40
2023-03-13T03:33:38.465Z,62.40
2023-03-13T03:36:11.054Z,62.40
2023-03-13T03:38:40.645Z,62.50
2023-03-13T03:41:10.562Z,62.50
2023-03-13T03:43:38.492Z,62.40
2023-03-13T03:46:08.508Z,62.20
2023-03-13T03:48:36.513Z,62.20
2023-03-13T03:51:07.090Z,62.10
2023-03-13T03:53:40.322Z,62.10
2023-03-13T03:56:08.757Z,62.20
2023-03-13T03:58:40.986Z,62.20
2023-03-13T04:01:15.096Z,62.10
2023-03-13T04:03:43.139Z,62.10
2023-03-13T04:06:11.602Z,62.20
2023-03-13T04:08:41.895Z,62.40
2023-03-13T04:11:12.250Z,62.20
2023-03-13T04:13:43.662Z,62.20
2023-03-13T04:16:12.267Z,62.10
2023-03-13T04:18:40.730Z,62.10
2023-03-13T04:21:08.986Z,61.80
2023-03-13T04:23:44.266Z,61.90
2023-03-13T04:26:13.953Z,61.90
2023-03-13T04:28:42.716Z,61.90
2023-03-13T04:31:12.893Z,62.00
2023-03-13T04:33:59.523Z,61.90
2023-03-13T04:36:52.873Z,61.90
2023-03-13T04:39:40.436Z,62.00
2023-03-13T04:42:37.409Z,61.80
2023-03-13T04:45:18.043Z,61.70
2023-03-13T04:48:00.398Z,61.70
2023-03-13T04:50:30.973Z,61.50
2023-03-13T04:53:08.361Z,61.40
2023-03-13T04:56:00.386Z,61.50
2023-03-13T04:58:48.578Z,61.30
2023-03-13T05:01:30.808Z,61.40
2023-03-13T05:04:12.120Z,61.40
2023-03-13T05:06:58.820Z,61.30
2023-03-13T05:09:58.786Z,61.40
2023-03-13T05:13:00.053Z,61.40
2023-03-13T05:15:54.236Z,61.30
2023-03-13T05:18:43.122Z,61.30
2023-03-13T05:21:26.190Z,61.30
2023-03-13T05:24:12.559Z,62.40
2023-03-13T05:26:55.775Z,61.40
2023-03-13T05:29:33.715Z,61.40
2023-03-13T05:32:15.216Z,61.50
2023-03-13T05:34:56.851Z,61.60
2023-03-13T05:37:42.603Z,61.50
2023-03-13T05:40:30.490Z,61.70
2023-03-13T05:43:15.460Z,61.60
2023-03-13T05:46:09.766Z,61.40
2023-03-13T05:48:56.802Z,61.40
2023-03-13T05:51:44.567Z,61.40
2023-03-13T05:54:25.405Z,61.30
2023-03-13T05:57:04.798Z,61.30
2023-03-13T06:00:05.572Z,61.20
2023-03-13T06:02:53.211Z,61.20
2023-03-13T06:05:27.006Z,61.40
2023-03-13T06:07:55.645Z,61.30
2023-03-13T06:10:23.723Z,61.30
2023-03-13T06:12:54.802Z,61.30
2023-03-13T06:15:24.956Z,61.70
2023-03-13T06:18:16.250Z,61.70
2023-03-13T06:20:44.134Z,62.10
2023-03-13T06:23:12.016Z,62.30
2023-03-13T06:25:39.879Z,62.20
2023-03-13T06:28:07.797Z,62.40
2023-03-13T06:30:35.672Z,62.30
2023-03-13T06:33:03.650Z,62.40
2023-03-13T06:35:38.828Z,62.40
2023-03-13T06:38:11.393Z,62.30
2023-03-13T06:40:39.317Z,62.30
2023-03-13T06:43:07.223Z,62.20
2023-03-13T06:45:36.630Z,62.10
2023-03-13T06:48:04.542Z,62.10
2023-03-13T06:50:33.817Z,61.90
2023-03-13T06:53:01.760Z,61.90
2023-03-13T06:55:29.642Z,61.90
2023-03-13T06:57:57.518Z,61.90
2023-03-13T07:00:26.126Z,62.10
2023-03-13T07:02:54.175Z,62.30
2023-03-13T07:08:37.264Z,62.10
2023-03-13T07:11:06.343Z,61.90
2023-03-13T07:13:34.216Z,62.00
2023-03-13T07:16:04.309Z,61.90
2023-03-13T07:18:32.339Z,61.90
2023-03-13T07:21:00.940Z,61.90
2023-03-13T07:23:29.850Z,61.80
2023-03-13T07:26:00.109Z,61.70
2023-03-13T07:28:28.524Z,61.80
2023-03-13T07:30:56.374Z,61.70
2023-03-13T07:33:24.274Z,61.60
2023-03-13T07:35:52.818Z,61.50
2023-03-13T07:38:20.896Z,61.50
2023-03-13T07:40:50.250Z,61.50
2023-03-13T07:43:19.519Z,61.50
2023-03-13T07:45:54.870Z,61.40
2023-03-13T07:48:23.099Z,61.50
2023-03-13T07:50:51.011Z,61.50
2023-03-13T07:53:21.294Z,61.50
2023-03-13T07:55:56.490Z,61.40
2023-03-13T07:58:26.072Z,61.40
2023-03-13T08:00:53.980Z,61.40
2023-03-13T08:03:22.387Z,61.30
2023-03-13T08:05:57.900Z,61.40
2023-03-13T08:08:25.773Z,61.30
2023-03-13T08:10:53.663Z,61.20
2023-03-13T08:13:21.531Z,61.30
2023-03-13T08:15:50.768Z,61.20
2023-03-13T08:18:18.613Z,61.20
2023-03-13T08:20:46.556Z,61.20
2023-03-13T08:23:14.437Z,61.00
2023-03-13T08:25:42.343Z,61.00
2023-03-13T08:28:11.005Z,60.90
2023-03-13T08:30:38.932Z,61.00
2023-03-13T08:33:08.284Z,61.00
2023-03-13T08:35:36.322Z,60.90
2023-03-13T08:38:04.210Z,60.90
2023-03-13T08:40:32.078Z,60.80
2023-03-13T08:43:00.020Z,60.70
2023-03-13T08:45:27.902Z,60.60
2023-03-13T08:47:55.781Z,60.70
2023-03-13T08:50:25.060Z,60.70
2023-03-13T08:52:53.036Z,60.70
2023-03-13T08:55:20.959Z,60.70
2023-03-13T08:57:48.806Z,60.70
2023-03-13T09:00:18.739Z,60.90
2023-03-13T09:02:46.756Z,60.90
2023-03-13T09:05:14.719Z,60.80
2023-03-13T09:07:44.020Z,60.80
2023-03-13T09:10:12.519Z,60.80
2023-03-13T09:12:41.145Z,60.90
2023-03-13T09:15:10.344Z,60.80
2023-03-13T09:17:38.248Z,60.80
2023-03-13T09:20:07.176Z,60.70
2023-03-13T09:22:35.063Z,60.60
2023-03-13T09:25:04.405Z,60.50
2023-03-13T09:27:32.269Z,60.40
2023-03-13T09:30:00.198Z,60.70
2023-03-13T09:32:28.092Z,60.30
2023-03-13T09:34:56.015Z,60.30
2023-03-13T09:37:23.918Z,60.20
2023-03-13T09:39:51.836Z,60.20
2023-03-13T09:42:22.257Z,60.10
2023-03-13T09:44:51.148Z,60.10
2023-03-13T09:47:22.634Z,60.00
2023-03-13T09:49:51.317Z,59.90
2023-03-13T09:52:20.623Z,59.80
2023-03-13T09:54:50.474Z,59.70
2023-03-13T09:57:23.613Z,59.70
2023-03-13T09:59:54.215Z,59.70
2023-03-13T10:02:31.156Z,59.60
2023-03-13T10:05:09.892Z,59.50
2023-03-13T10:07:37.838Z,59.40
2023-03-13T10:10:08.028Z,59.40
2023-03-13T10:12:39.678Z,59.30
2023-03-13T10:15:24.637Z,59.40
2023-03-13T10:17:52.528Z,59.30
2023-03-13T10:20:24.502Z,59.20
2023-03-13T10:22:53.242Z,59.20
2023-03-13T10:25:26.447Z,59.20
2023-03-13T10:27:55.757Z,59.20
2023-03-13T10:30:25.314Z,59.10
2023-03-13T10:32:55.744Z,59.00
2023-03-13T10:35:24.351Z,59.00
2023-03-13T10:37:52.274Z,59.00
2023-03-13T10:40:23.853Z,58.90
2023-03-13T10:42:52.545Z,59.00
2023-03-13T10:45:25.266Z,59.00
2023-03-13T10:47:55.543Z,59.00
2023-03-13T10:50:24.294Z,59.00
2023-03-13T10:52:52.434Z,59.10
2023-03-13T10:55:21.458Z,59.00
2023-03-13T10:57:56.455Z,58.90
2023-03-13T11:00:34.403Z,59.00
2023-03-13T11:03:03.724Z,58.90
2023-03-13T11:05:38.441Z,58.90
2023-03-13T11:08:14.701Z,58.90
2023-03-13T11:10:54.685Z,58.90
2023-03-13T11:13:37.977Z,58.90
2023-03-13T11:16:20.702Z,58.90
2023-03-13T11:19:03.129Z,58.90
2023-03-13T11:21:34.486Z,58.90
2023-03-13T11:24:05.881Z,58.90
2023-03-13T11:26:35.815Z,58.90
2023-03-13T11:29:06.513Z,58.80
2023-03-13T11:31:40.303Z,58.80
2023-03-13T11:34:12.496Z,58.70
2023-03-13T11:36:41.831Z,58.60
2023-03-13T11:39:32.077Z,58.60
2023-03-13T11:42:01.713Z,58.60
2023-03-13T11:44:31.610Z,58.60
2023-03-13T11:47:13.865Z,58.50
2023-03-13T11:50:02.238Z,58.50
2023-03-13T11:52:41.795Z,58.40
2023-03-13T11:55:39.005Z,58.50
2023-03-13T11:58:16.290Z,58.50
2023-03-13T12:00:46.908Z,58.50
2023-03-13T12:03:17.431Z,58.60
2023-03-13T12:05:46.798Z,58.60
2023-03-13T12:08:17.953Z,58.50
2023-03-13T12:10:47.528Z,58.50
2023-03-13T12:13:17.880Z,58.50
2023-03-13T12:15:46.730Z,58.60
2023-03-13T12:18:19.284Z,58.60
2023-03-13T12:20:53.374Z,58.50
2023-03-13T12:23:21.870Z,58.50
2023-03-13T12:25:53.020Z,58.50
2023-03-13T12:28:25.996Z,58.40
2023-03-13T12:30:57.778Z,58.40
2023-03-13T12:33:28.057Z,58.40
2023-03-13T12:36:01.209Z,58.40
2023-03-13T12:38:30.974Z,58.30
2023-03-13T12:41:02.686Z,58.30
2023-03-13T12:43:32.658Z,59.30
2023-03-13T12:46:11.956Z,58.20
2023-03-13T12:48:52.614Z,58.30
2023-03-13T12:51:26.894Z,58.20
2023-03-13T12:54:31.777Z,58.10
2023-03-13T12:57:05.849Z,58.00
2023-03-13T12:59:34.285Z,58.00
2023-03-13T13:02:03.589Z,58.00
2023-03-13T13:04:33.925Z,58.00
2023-03-13T13:07:02.836Z,59.00
2023-03-13T13:09:31.339Z,58.00
2023-03-13T13:12:01.574Z,57.90
2023-03-13T13:15:03.819Z,57.80
2023-03-13T13:18:02.703Z,57.80
2023-03-13T13:20:35.068Z,57.70
2023-03-13T13:23:34.742Z,57.70
2023-03-13T13:26:48.772Z,57.80
2023-03-13T13:29:59.517Z,57.90
2023-03-13T13:32:41.840Z,57.90
2023-03-13T13:35:27.179Z,58.00
2023-03-13T13:38:15.490Z,58.00
2023-03-13T13:40:43.399Z,58.00
2023-03-13T13:43:20.270Z,57.90
2023-03-13T13:45:58.657Z,58.00
2023-03-13T13:48:32.648Z,58.00
2023-03-13T13:51:25.858Z,57.90
2023-03-13T13:53:56.923Z,57.90
2023-03-13T13:56:33.487Z,57.80
2023-03-13T13:59:03.926Z,57.80
2023-03-13T14:01:31.864Z,57.70
2023-03-13T14:04:05.614Z,57.70
2023-03-13T14:06:35.164Z,57.70
2023-03-13T14:09:14.477Z,57.70
2023-03-13T14:11:42.363Z,57.70
2023-03-13T14:14:11.097Z,57.70
2023-03-13T14:16:39.033Z,57.70
2023-03-13T14:19:06.974Z,57.60
2023-03-13T14:21:34.860Z,57.70
2023-03-13T14:24:04.085Z,57.60
2023-03-13T14:26:33.881Z,57.60
2023-03-13T14:29:02.935Z,57.70
2023-03-13T14:31:32.051Z,57.80
2023-03-13T14:34:00.963Z,58.00
2023-03-13T14:36:29.286Z,58.10
2023-03-13T14:38:57.947Z,57.90
2023-03-13T14:41:29.970Z,57.90
2023-03-13T14:44:03.707Z,57.80
2023-03-13T14:46:32.652Z,57.90
2023-03-13T14:49:08.032Z,57.80
2023-03-13T14:51:39.334Z,57.80
2023-03-13T14:54:07.260Z,57.90
2023-03-13T14:56:37.088Z,57.80
2023-03-13T14:59:09.476Z,57.90
2023-03-13T15:01:37.386Z,57.90
2023-03-13T15:04:05.599Z,57.90
2023-03-13T15:06:33.483Z,57.90
2023-03-13T15:09:21.189Z,57.90
2023-03-13T15:11:58.240Z,57.90
2023-03-13T15:14:37.210Z,57.80
2023-03-13T15:17:05.268Z,57.80
2023-03-13T15:19:33.221Z,57.80
2023-03-13T15:22:02.430Z,57.90
2023-03-13T15:24:30.612Z,57.90
2023-03-13T15:26:59.926Z,57.90
2023-03-13T15:29:28.248Z,57.80
2023-03-13T15:31:56.167Z,57.80
2023-03-13T15:34:25.518Z,57.90
2023-03-13T15:36:53.427Z,57.80
2023-03-13T15:39:23.018Z,57.70
2023-03-13T15:41:50.890Z,57.90
2023-03-13T15:44:20.119Z,58.20
2023-03-13T15:46:50.628Z,58.30
2023-03-13T15:49:18.548Z,58.30
2023-03-13T15:51:46.448Z,58.50
2023-03-13T15:54:14.377Z,58.60
2023-03-13T15:56:42.319Z,58.60
2023-03-13T15:59:13.259Z,58.70
2023-03-13T16:01:43.268Z,58.70
2023-03-13T16:04:11.546Z,58.70
2023-03-13T16:06:39.574Z,58.80
2023-03-13T16:09:07.662Z,58.80
2023-03-13T16:11:35.605Z,58.80
2023-03-13T16:14:03.627Z,58.90
2023-03-13T16:16:36.506Z,58.80
2023-03-13T16:19:07.659Z,58.80
2023-03-13T16:21:36.170Z,58.90
2023-03-13T16:24:04.317Z,58.90
2023-03-13T16:26:32.486Z,58.90
2023-03-13T16:29:00.419Z,58.90
2023-03-13T16:31:29.215Z,58.90
2023-03-13T16:33:57.713Z,58.90
2023-03-13T16:36:28.328Z,59.00
2023-03-13T16:38:56.257Z,59.00
2023-03-13T16:41:25.304Z,58.90
2023-03-13T16:43:53.221Z,59.00
2023-03-13T16:46:21.804Z,59.10
2023-03-13T16:48:50.060Z,59.10
2023-03-13T16:51:18.804Z,59.00
2023-03-13T16:53:48.808Z,59.00
2023-03-13T16:56:20.512Z,59.00
2023-03-13T16:58:48.468Z,59.00
2023-03-13T17:01:16.773Z,59.00
2023-03-13T17:03:44.653Z,59.10
2023-03-13T17:06:22.573Z,59.10
2023-03-13T17:08:51.903Z,59.10
2023-03-13T17:11:20.958Z,59.10
2023-03-13T17:13:49.699Z,59.10
2023-03-13T17:16:18.850Z,59.10
2023-03-13T17:18:47.473Z,59.10
2023-03-13T17:21:17.616Z,59.20
2023-03-13T17:23:45.951Z,59.30
2023-03-13T17:26:19.715Z,59.10
2023-03-13T17:28:48.610Z,59.20
2023-03-13T17:31:16.873Z,59.30
2023-03-13T17:33:44.882Z,59.20
2023-03-13T17:36:17.313Z,59.20
2023-03-13T17:38:45.299Z,59.20
2023-03-13T17:41:13.969Z,59.20
2023-03-13T17:43:43.284Z,59.20
2023-03-13T17:46:19.253Z,59.10
2023-03-13T17:48:47.516Z,59.00
2023-03-13T17:51:20.482Z,58.90
2023-03-13T17:53:48.451Z,58.90
2023-03-13T17:56:18.320Z,58.80
2023-03-13T17:58:48.607Z,58.90
2023-03-13T18:01:16.617Z,58.90
2023-03-13T18:03:44.598Z,58.90
2023-03-13T18:06:19.276Z,58.80
2023-03-13T18:08:47.461Z,58.90
2023-03-13T18:11:16.395Z,59.00
2023-03-13T18:13:44.638Z,59.00
2023-03-13T18:16:23.993Z,59.50
2023-03-13T18:18:51.989Z,60.20
2023-03-13T18:21:19.983Z,61.50
2023-03-13T18:23:47.884Z,62.50
2023-03-13T18:26:22.539Z,63.30
2023-03-13T18:28:50.463Z,63.90
2023-03-13T18:31:19.775Z,64.40
2023-03-13T18:33:48.007Z,64.50
2023-03-13T18:36:17.623Z,64.60
2023-03-13T18:38:46.038Z,64.60
2023-03-13T18:41:15.436Z,64.70
2023-03-13T18:43:43.445Z,65.10
2023-03-13T18:46:14.944Z,65.10
2023-03-13T18:48:44.243Z,65.00
2023-03-13T18:51:14.711Z,64.30
2023-03-13T18:53:44.507Z,64.00
2023-03-13T18:56:17.812Z,64.80
2023-03-13T18:58:47.939Z,63.60
2023-03-13T19:01:18.695Z,63.80
2023-03-13T19:03:48.074Z,63.90
2023-03-13T19:06:18.718Z,64.00
2023-03-13T19:08:47.038Z,64.00
2023-03-13T19:11:15.193Z,64.00
2023-03-13T19:13:43.066Z,64.00
2023-03-13T19:16:15.266Z,63.50
2023-03-13T19:18:44.688Z,63.50
2023-03-13T19:21:17.757Z,63.30
2023-03-13T19:23:45.666Z,63.10
2023-03-13T19:26:18.428Z,63.00
2023-03-13T19:28:46.403Z,63.00
2023-03-13T19:31:14.838Z,62.90
2023-03-13T19:33:43.468Z,62.90
2023-03-13T19:36:13.159Z,62.70
2023-03-13T19:38:42.686Z,62.60
2023-03-13T19:41:10.838Z,62.60
2023-03-13T19:43:38.913Z,62.50
2023-03-13T19:46:22.506Z,62.40
2023-03-13T19:48:51.321Z,62.30
2023-03-13T19:51:19.367Z,62.30
2023-03-13T19:53:48.632Z,62.10
2023-03-13T19:56:18.157Z,62.10
2023-03-13T19:58:46.590Z,62.00
2023-03-13T20:01:17.530Z,62.00
2023-03-13T20:03:46.011Z,61.80
2023-03-13T20:06:17.393Z,61.70
2023-03-13T20:08:45.393Z,61.90
2023-03-13T20:11:14.732Z,62.10
2023-03-13T20:13:42.775Z,62.10
2023-03-13T20:16:11.811Z,62.20
2023-03-13T20:18:39.770Z,62.20
2023-03-13T20:21:07.955Z,62.30
2023-03-13T20:23:35.867Z,62.30
2023-03-13T20:26:05.878Z,62.40
2023-03-13T20:28:35.259Z,62.50
2023-03-13T20:31:03.275Z,62.30
2023-03-13T20:33:32.616Z,62.50
2023-03-13T20:36:01.498Z,62.60
2023-03-13T20:38:29.570Z,62.80
2023-03-13T20:40:57.860Z,62.70
2023-03-13T20:43:25.917Z,62.80
2023-03-13T20:45:55.301Z,62.90
2023-03-13T20:48:25.961Z,62.90
2023-03-13T20:50:53.975Z,62.90
2023-03-13T20:53:21.952Z,62.80
2023-03-13T20:55:49.846Z,62.80
2023-03-13T20:58:20.081Z,62.80
2023-03-13T21:00:48.152Z,62.80
2023-03-13T21:03:19.458Z,62.70
2023-03-13T21:05:47.438Z,62.70
2023-03-13T21:08:15.368Z,62.70
2023-03-13T21:10:43.477Z,62.80
2023-03-13T21:13:11.575Z,62.80
2023-03-13T21:15:40.502Z,62.60
2023-03-13T21:18:08.471Z,62.60
2023-03-13T21:20:38.542Z,62.70
2023-03-13T21:23:06.430Z,62.60
2023-03-13T21:25:34.335Z,62.40
2023-03-13T21:28:02.274Z,62.30
2023-03-13T21:30:30.162Z,62.10
2023-03-13T21:32:58.196Z,62.30
2023-03-13T21:35:26.169Z,62.50
2023-03-13T21:37:55.448Z,62.50
2023-03-13T21:40:23.438Z,62.40
2023-03-13T21:42:51.321Z,62.30
2023-03-13T21:45:19.417Z,62.40
2023-03-13T21:47:47.320Z,62.50
2023-03-13T21:50:15.218Z,62.50
2023-03-13T21:52:43.273Z,62.40
2023-03-13T21:55:13.603Z,62.50
2023-03-13T21:57:41.844Z,62.90
2023-03-13T22:00:13.864Z,62.80
2023-03-13T22:02:41.793Z,62.60
2023-03-13T22:05:09.951Z,62.60
2023-03-13T22:07:37.893Z,62.70
2023-03-13T22:10:06.535Z,62.80
2023-03-13T22:12:37.225Z,62.80
2023-03-13T22:15:05.997Z,62.90
2023-03-13T22:17:33.902Z,63.00
2023-03-13T22:20:01.842Z,63.40
2023-03-13T22:22:29.734Z,64.20
2023-03-13T22:24:57.607Z,65.30
2023-03-13T22:27:25.524Z,65.60
2023-03-13T22:29:54.804Z,66.00
2023-03-13T22:32:24.473Z,66.30
2023-03-13T22:34:52.454Z,66.30
2023-03-13T22:37:22.192Z,66.70
2023-03-13T22:39:53.897Z,66.90
2023-03-13T22:42:21.880Z,67.20
2023-03-13T22:44:49.786Z,67.50
2023-03-13T22:47:19.113Z,67.40
2023-03-13T22:49:47.042Z,67.60
2023-03-13T22:52:14.912Z,67.50
2023-03-13T22:54:42.785Z,67.60
2023-03-13T22:57:10.691Z,67.60
2023-03-13T22:59:38.589Z,67.60
2023-03-13T23:02:06.516Z,67.80
2023-03-13T23:04:35.768Z,67.40
2023-03-13T23:07:03.637Z,66.90
2023-03-13T23:09:31.506Z,67.10
2023-03-13T23:11:59.424Z,67.50
2023-03-13T23:14:29.067Z,67.60
2023-03-13T23:16:57.204Z,66.80
2023-03-13T23:19:25.099Z,66.90
2023-03-13T23:21:54.465Z,66.70
2023-03-13T23:24:22.339Z,66.30
2023-03-13T23:26:50.206Z,66.30
2023-03-13T23:29:18.094Z,66.20
2023-03-13T23:31:46.032Z,66.00
2023-03-13T23:34:14.122Z,66.00
2023-03-13T23:36:42.111Z,65.90
2023-03-13T23:39:11.305Z,66.20
2023-03-13T23:41:39.163Z,66.10
2023-03-13T23:44:07.062Z,66.00
2023-03-13T23:46:34.980Z,66.40
2023-03-13T23:49:02.844Z,66.20
2023-03-13T23:51:30.728Z,66.40
2023-03-13T23:53:58.678Z,66.50
2023-03-13T23:56:29.559Z,66.40
2023-03-13T23:58:57.469Z,66.40
